Time;durP1;ratioP1;P1;durP2;ratioP2;P2;SDS_P1;SDS_P2;PMS_P1;PMS_P2;Temp;Humidity;BMP_temperature;BMP_pressure;BME280_temperature;BME280_humidity;BME280_pressure;Samples;Min_cycle;Max_cycle;Signal;HPM_P1;HPM_P2
2023/08/22 00:01:50;;;;;;;14.30;11.75;;;;;;;-143.21;62.65;71368.28;5050882;28;20220;-84
2023/08/22 00:04:16;;;;;;;13.27;11.07;;;;;;;-143.21;62.96;71378.19;5041712;28;20227;-84
2023/08/22 00:06:44;;;;;;;15.20;11.57;;;;;;;-143.21;62.83;71374.22;5045081;28;20566;-84
2023/08/22 00:09:11;;;;;;;12.77;11.48;;;;;;;-143.21;62.84;71372.25;5047638;28;20198;-84
2023/08/22 00:11:38;;;;;;;17.45;11.85;;;;;;;-143.21;62.80;71372.25;5043676;28;20202;-83
2023/08/22 00:14:05;;;;;;;15.00;11.98;;;;;;;-143.21;62.59;71376.22;5046973;28;20550;-82
2023/08/22 00:16:33;;;;;;;19.02;12.10;;;;;;;-143.21;62.92;71380.19;5045632;28;20664;-84
2023/08/22 00:18:59;;;;;;;13.07;11.55;;;;;;;-143.21;62.98;71388.09;5047217;28;20257;-82
2023/08/22 00:21:26;;;;;;;13.60;11.95;;;;;;;-143.21;62.76;71384.16;5043184;28;20210;-82
2023/08/22 00:23:55;;;;;;;14.50;11.40;;;;;;;-143.21;62.73;71382.16;5046486;28;20716;-83
2023/08/22 00:26:22;;;;;;;13.95;11.90;;;;;;;-143.21;62.86;71380.19;5042912;28;20213;-82
2023/08/22 00:28:49;;;;;;;15.43;11.55;;;;;;;-143.21;62.44;71376.22;5050107;28;20692;-83
2023/08/22 00:31:16;;;;;;;17.05;12.23;;;;;;;-143.21;62.86;71384.16;5046951;28;20217;-82
2023/08/22 00:33:43;;;;;;;14.85;11.40;;;;;;;-143.21;63.19;71396.03;5050821;28;20225;-83
2023/08/22 00:36:10;;;;;;;17.50;11.48;;;;;;;-143.21;63.25;71400.00;5044551;28;20217;-82
2023/08/22 00:38:36;;;;;;;15.73;11.95;;;;;;;-143.21;63.22;71394.06;5038627;28;20696;-84
2023/08/22 00:41:05;;;;;;;14.02;11.38;;;;;;;-143.21;63.12;71394.06;5046324;28;20202;-84
2023/08/22 00:43:31;;;;;;;16.13;11.88;;;;;;;-143.21;63.65;71400.00;5052207;28;20225;-84
2023/08/22 00:45:58;;;;;;;14.10;11.70;;;;;;;-143.21;63.84;71405.94;5046052;28;20202;-83
2023/08/22 00:48:25;;;;;;;18.17;12.60;;;;;;;-143.21;63.75;71403.97;5050413;28;20210;-83
2023/08/22 00:50:52;;;;;;;16.42;12.93;;;;;;;-143.21;63.58;71403.97;5047196;28;20214;-83
2023/08/22 00:53:19;;;;;;;19.35;14.52;;;;;;;-143.21;63.72;71405.94;5049325;28;20207;-84
2023/08/22 00:55:46;;;;;;;22.38;14.70;;;;;;;-143.21;63.62;71400.00;5045738;28;20641;-85
2023/08/22 00:58:14;;;;;;;22.00;16.15;;;;;;;-143.21;63.48;71403.97;5052409;28;20580;-85
2023/08/22 01:00:41;;;;;;;23.65;18.48;;;;;;;-143.21;64.01;71415.88;5050764;28;20598;-84
2023/08/22 01:03:08;;;;;;;23.35;18.35;;;;;;;-143.21;63.95;71419.84;5050216;28;20253;-84
2023/08/22 01:05:38;;;;;;;25.95;18.65;;;;;;;-143.21;64.28;71429.75;5050570;28;20194;-85
2023/08/22 01:08:14;;;;;;;26.70;17.27;;;;;;;-143.21;64.02;71433.72;5048711;28;20206;-84
2023/08/22 01:10:46;;;;;;;25.23;17.88;;;;;;;-143.21;64.29;71433.72;5044755;28;20668;-84
2023/08/22 01:13:20;;;;;;;24.98;17.63;;;;;;;-143.21;64.54;71443.63;5047002;28;20688;-86
2023/08/22 01:15:48;;;;;;;23.95;16.95;;;;;;;-143.21;64.57;71455.53;5039179;28;20209;-84
2023/08/22 01:18:18;;;;;;;26.80;16.35;;;;;;;-143.21;64.77;71463.44;5045779;28;20248;-83
2023/08/22 01:20:45;;;;;;;22.10;16.17;;;;;;;-143.21;65.37;71481.28;5051428;28;20643;-84
2023/08/22 01:23:13;;;;;;;24.63;15.77;;;;;;;-143.21;65.95;71503.09;5049383;28;20226;-83
2023/08/22 01:25:41;;;;;;;21.27;14.98;;;;;;;-143.21;66.48;71516.97;5043990;28;20215;-85
2023/08/22 01:28:13;;;;;;;27.05;17.00;;;;;;;-143.21;66.79;71516.97;5049116;28;20214;-84
2023/08/22 01:30:49;;;;;;;22.98;16.25;;;;;;;-143.21;67.04;71503.09;5040209;28;20209;-85
2023/08/22 01:33:25;;;;;;;24.30;17.52;;;;;;;-143.21;66.79;71501.13;5048252;28;20190;-85
2023/08/22 01:35:55;;;;;;;23.42;17.17;;;;;;;-143.21;66.69;71495.19;5043808;28;20217;-86
2023/08/22 01:38:26;;;;;;;23.88;17.20;;;;;;;-143.21;66.42;71499.13;5047762;28;20202;-87
2023/08/22 01:41:10;;;;;;;;;;;;;;;;;;;;;
2023/08/22 01:43:43;;;;;;;21.48;16.15;;;;;;;-143.21;66.17;71483.28;5045550;28;20225;-85
2023/08/22 01:46:13;;;;;;;25.83;15.70;;;;;;;-143.21;65.88;71479.31;5036924;28;20276;-85
2023/08/22 01:48:44;;;;;;;19.05;14.35;;;;;;;-143.21;66.39;71485.25;5031952;28;20211;-84
2023/08/22 01:51:13;;;;;;;18.13;14.00;;;;;;;-143.21;66.32;71485.25;5047061;28;20202;-85
2023/08/22 01:53:41;;;;;;;21.63;15.27;;;;;;;-143.21;66.12;71485.25;5048708;28;20264;-81
2023/08/22 01:56:11;;;;;;;23.02;15.55;;;;;;;-143.21;66.50;71499.13;5047335;28;20734;-82
2023/08/22 01:58:38;;;;;;;20.88;14.93;;;;;;;-143.21;66.58;71499.13;5047766;28;20206;-83
2023/08/22 02:01:09;;;;;;;19.63;14.63;;;;;;;-143.21;66.53;71507.06;5043947;28;20210;-80
2023/08/22 02:03:36;;;;;;;24.42;14.48;;;;;;;-143.21;66.74;71524.91;5046439;28;20307;-81
2023/08/22 02:06:04;;;;;;;21.38;14.68;;;;;;;-143.21;66.85;71516.97;5044532;28;20201;-79
2023/08/22 02:08:31;;;;;;;18.98;14.35;;;;;;;-143.21;67.37;71526.91;5042579;28;20205;-80
2023/08/22 02:11:02;;;;;;;16.92;13.98;;;;;;;-143.21;67.48;71530.88;5043177;28;20213;-81
2023/08/22 02:13:32;;;;;;;23.08;15.50;;;;;;;-143.21;67.39;71534.81;5045360;28;20206;-81
2023/08/22 02:15:58;;;;;;;19.02;15.18;;;;;;;-143.21;67.61;71534.81;5045995;28;20198;-80
2023/08/22 02:18:27;;;;;;;18.92;15.43;;;;;;;-143.21;67.40;71532.84;5040409;28;20222;-81
2023/08/22 02:20:56;;;;;;;21.80;15.60;;;;;;;-143.21;67.60;71538.78;5030248;28;20284;-81
2023/08/22 02:23:27;;;;;;;24.52;16.02;;;;;;;-143.21;67.92;71556.63;5027665;28;20234;-80
2023/08/22 02:25:54;;;;;;;25.15;15.85;;;;;;;-143.21;67.98;71564.56;5029440;28;20681;-80
2023/08/22 02:28:22;;;;;;;21.42;16.58;;;;;;;-143.21;68.72;71580.44;5027416;28;20230;-80
2023/08/22 02:30:55;;;;;;;25.33;16.33;;;;;;;-143.21;68.67;71580.44;5031199;28;20219;-80
2023/08/22 02:33:21;;;;;;;25.33;16.02;;;;;;;-143.21;68.87;71578.44;5027686;28;20222;-80
2023/08/22 02:35:48;;;;;;;20.95;15.82;;;;;;;-143.21;69.41;71586.38;5038131;28;21184;-79
2023/08/22 02:38:15;;;;;;;27.67;15.95;;;;;;;-143.21;69.21;71574.47;5032918;28;20283;-80
2023/08/22 02:40:49;;;;;;;20.38;14.88;;;;;;;-143.21;69.01;71570.53;5033942;28;20210;-86
2023/08/22 02:43:15;;;;;;;20.75;15.02;;;;;;;-143.21;68.92;71568.53;5032992;28;20218;-86
2023/08/22 02:45:51;;;;;;;23.35;15.82;;;;;;;-143.21;68.64;71566.56;5033021;28;20215;-86
2023/08/22 02:48:18;;;;;;;19.73;14.90;;;;;;;-143.21;68.62;71570.53;5031785;28;20209;-86
2023/08/22 02:53:30;;;;;;;18.80;15.73;;;;;;;-143.21;68.64;71562.59;5030427;28;20288;-84
2023/08/22 02:56:00;;;;;;;23.17;15.35;;;;;;;-143.21;68.53;71558.63;5038246;28;20203;-86
2023/08/22 02:58:27;;;;;;;22.95;15.93;;;;;;;-143.21;68.28;71550.69;5032647;28;20573;-84
2023/08/22 03:00:55;;;;;;;20.90;15.50;;;;;;;-143.21;68.27;71558.63;5035350;28;20199;-83
2023/08/22 03:03:22;;;;;;;23.75;16.85;;;;;;;-143.21;68.74;71576.47;5033342;28;20241;-84
2023/08/22 03:05:49;;;;;;;30.05;16.60;;;;;;;-143.21;69.00;71584.41;5031216;28;20225;-84
2023/08/22 03:08:20;;;;;;;27.65;17.25;;;;;;;-143.21;69.50;71592.31;5032639;28;20593;-84
2023/08/22 03:10:47;;;;;;;23.10;16.42;;;;;;;-143.21;69.71;71590.34;5031606;28;20217;-84
2023/08/22 03:13:13;;;;;;;22.05;15.88;;;;;;;-143.21;69.53;71594.31;5033585;28;20210;-83
2023/08/22 03:15:40;;;;;;;21.95;16.08;;;;;;;-143.21;69.39;71602.25;5037891;28;20216;-85
2023/08/22 03:18:09;;;;;;;18.65;15.73;;;;;;;-143.21;70.06;71618.09;5037496;28;20234;-83
2023/08/22 03:20:36;;;;;;;24.90;15.95;;;;;;;-143.21;70.39;71624.06;5029084;28;20209;-84
2023/08/22 03:23:04;;;;;;;22.38;15.38;;;;;;;-143.21;70.34;71624.06;5036929;28;20242;-83
2023/08/22 03:25:34;;;;;;;24.95;15.85;;;;;;;-143.21;70.14;71614.13;5034775;28;20218;-83
2023/08/22 03:28:03;;;;;;;22.42;15.98;;;;;;;-143.21;69.64;71598.28;5032118;28;20199;-84
2023/08/22 03:30:30;;;;;;;22.27;16.27;;;;;;;-143.21;69.49;71600.25;5040108;28;20283;-86
2023/08/22 03:32:57;;;;;;;20.77;15.85;;;;;;;-143.21;69.65;71610.16;5014172;28;20219;-85
2023/08/22 03:35:26;;;;;;;24.38;17.15;;;;;;;-143.21;69.47;71604.22;5030199;28;20209;-84
2023/08/22 03:37:53;;;;;;;24.70;17.75;;;;;;;-143.21;69.74;71604.22;5036169;28;20857;-83
2023/08/22 03:40:19;;;;;;;25.85;18.20;;;;;;;-143.21;70.08;71620.09;5035588;28;20219;-83
2023/08/22 03:42:47;;;;;;;28.88;16.77;;;;;;;-143.21;70.16;71620.09;5034650;28;20202;-83
2023/08/22 03:45:17;;;;;;;23.63;15.70;;;;;;;-143.21;70.24;71618.09;5040500;28;20317;-82
2023/08/22 03:47:48;;;;;;;22.88;16.60;;;;;;;-143.21;70.60;71620.09;5037755;28;20202;-85
2023/08/22 03:50:15;;;;;;;24.63;15.00;;;;;;;-143.21;70.81;71628.00;5036263;28;20198;-85
2023/08/22 03:52:52;;;;;;;30.58;15.82;;;;;;;-143.21;70.94;71628.00;5039686;28;20207;-85
2023/08/22 03:55:19;;;;;;;21.15;15.27;;;;;;;-143.21;71.08;71630.00;5030832;28;20210;-84
2023/08/22 03:57:57;;;;;;;17.23;14.65;;;;;;;-143.21;71.05;71630.00;5030471;28;20688;-85
2023/08/22 04:00:24;;;;;;;22.90;14.75;;;;;;;-143.21;71.29;71635.94;5028154;28;20213;-84
2023/08/22 04:02:55;;;;;;;18.73;14.80;;;;;;;-143.21;71.23;71641.91;5031469;28;20236;-85
2023/08/22 04:05:22;;;;;;;20.98;14.43;;;;;;;-143.21;71.21;71639.91;5034033;28;20258;-82
2023/08/22 04:07:50;;;;;;;25.75;15.13;;;;;;;-143.21;71.19;71639.91;5030664;28;20209;-81
2023/08/22 04:10:21;;;;;;;22.05;14.80;;;;;;;-143.21;71.05;71641.91;5030404;28;20203;-82
2023/08/22 04:12:48;;;;;;;23.70;15.30;;;;;;;-143.21;70.79;71630.00;5030419;28;20260;-81
2023/08/22 04:15:15;;;;;;;25.00;15.75;;;;;;;-143.21;70.32;71618.09;5030614;28;20213;-82
2023/08/22 04:17:42;;;;;;;23.05;15.45;;;;;;;-143.21;70.23;71610.16;5035771;28;20651;-81
2023/08/22 04:20:11;;;;;;;20.80;14.77;;;;;;;-143.21;70.23;71612.16;5047074;28;20748;-81
2023/08/22 04:22:39;;;;;;;32.40;14.82;;;;;;;-143.21;70.24;71608.19;5046855;28;20669;-81
2023/08/22 04:25:12;;;;;;;18.73;14.55;;;;;;;-143.21;70.21;71620.09;5051752;28;20296;-80
2023/08/22 04:27:39;;;;;;;23.70;15.30;;;;;;;-143.21;70.21;71618.09;5045294;28;20941;-81
2023/08/22 04:30:07;;;;;;;22.27;15.77;;;;;;;-143.21;70.43;71620.09;5040025;28;20654;-82
2023/08/22 04:32:34;;;;;;;18.48;14.95;;;;;;;-143.21;70.55;71622.06;5047859;28;20209;-80
2023/08/22 04:35:00;;;;;;;21.40;15.55;;;;;;;-143.21;70.29;71616.13;5049123;28;20198;-81
2023/08/22 04:37:28;;;;;;;27.85;15.48;;;;;;;-143.21;70.20;71626.03;5049337;28;20604;-81
2023/08/22 04:40:02;;;;;;;24.73;14.48;;;;;;;-143.21;70.58;71631.97;5039094;28;20677;-81
2023/08/22 04:42:31;;;;;;;23.77;15.98;;;;;;;-143.21;70.24;71633.97;5041121;28;20209;-81
2023/08/22 04:44:58;;;;;;;23.63;15.88;;;;;;;-143.21;70.31;71630.00;5047347;28;20724;-81
2023/08/22 04:47:24;;;;;;;24.45;16.17;;;;;;;-143.21;70.43;71639.91;5046470;28;20213;-81
2023/08/22 04:49:52;;;;;;;21.42;15.57;;;;;;;-143.21;70.57;71631.97;5045045;28;20206;-83
2023/08/22 04:52:18;;;;;;;20.90;15.55;;;;;;;-143.21;70.07;71626.03;5049351;28;20212;-81
2023/08/22 04:54:46;;;;;;;25.30;15.43;;;;;;;-143.21;70.18;71626.03;5045860;28;20207;-80
2023/08/22 04:57:13;;;;;;;23.95;16.10;;;;;;;-143.21;70.06;71626.03;5048095;28;20221;-80
2023/08/22 04:59:42;;;;;;;20.88;15.50;;;;;;;-143.21;70.09;71626.03;5047967;28;20206;-82
2023/08/22 05:02:08;;;;;;;28.48;16.48;;;;;;;-143.21;69.68;71624.06;5049095;28;20209;-76
2023/08/22 05:04:42;;;;;;;29.60;16.02;;;;;;;-143.21;69.88;71630.00;5043024;28;20295;-79
2023/08/22 05:07:09;;;;;;;23.38;16.70;;;;;;;-143.21;69.84;71620.09;5047446;28;20288;-79
2023/08/22 05:09:36;;;;;;;20.58;15.57;;;;;;;-143.21;69.81;71622.06;5046301;28;20204;-79
2023/08/22 05:12:03;;;;;;;21.45;15.20;;;;;;;-143.21;69.79;71616.13;5040046;28;20202;-78
2023/08/22 05:14:33;;;;;;;24.25;15.80;;;;;;;-143.21;69.56;71604.22;5043201;28;20245;-78
2023/08/22 05:17:01;;;;;;;21.30;14.70;;;;;;;-143.21;69.58;71598.28;5046153;28;20214;-78
2023/08/22 05:19:28;;;;;;;22.13;15.20;;;;;;;-143.21;69.39;71600.25;5043535;28;20234;-78
2023/08/22 05:21:55;;;;;;;26.20;18.05;;;;;;;-143.21;69.30;71600.25;5046841;28;20214;-79
2023/08/22 05:24:25;;;;;;;26.40;18.58;;;;;;;-143.21;69.55;71606.22;5039199;28;20250;-79
2023/08/22 05:26:52;;;;;;;24.75;16.98;;;;;;;-143.21;69.85;71612.16;5051057;28;20229;-82
2023/08/22 05:29:25;;;;;;;27.00;17.67;;;;;;;-143.21;70.18;71616.13;5041265;28;20225;-80
2023/08/22 05:31:51;;;;;;;25.40;17.63;;;;;;;-143.21;69.99;71610.16;5046894;28;20293;-78
2023/08/22 05:34:20;;;;;;;25.48;17.02;;;;;;;-143.21;69.95;71608.19;5043402;28;20198;-78
2023/08/22 05:36:46;;;;;;;21.95;16.50;;;;;;;-143.21;69.55;71592.31;5046833;28;20213;-79
2023/08/22 05:39:13;;;;;;;25.13;16.38;;;;;;;-143.21;68.79;71566.56;5048936;28;20217;-78
2023/08/22 05:41:40;;;;;;;24.02;15.85;;;;;;;-143.21;68.53;71564.56;5047068;28;20206;-78
2023/08/22 05:44:07;;;;;;;23.02;16.65;;;;;;;-143.21;68.56;71556.63;5042002;28;20201;-77
2023/08/22 05:46:34;;;;;;;26.42;16.77;;;;;;;-143.21;68.25;71546.72;5046853;28;20214;-78
2023/08/22 05:49:01;;;;;;;28.00;16.98;;;;;;;-143.21;68.11;71538.78;5052013;28;20198;-78
2023/08/22 05:51:29;;;;;;;24.83;17.38;;;;;;;-143.21;67.95;71534.81;5047272;28;20206;-78
2023/08/22 05:53:56;;;;;;;23.33;18.13;;;;;;;-143.21;67.76;71528.88;5049233;28;20204;-78
2023/08/22 05:56:23;;;;;;;24.25;17.50;;;;;;;-143.21;67.70;71518.97;5049856;28;20872;-78
2023/08/22 05:58:50;;;;;;;25.55;18.60;;;;;;;-143.21;67.81;71515.00;5040643;28;20302;-78
2023/08/22 06:01:17;;;;;;;24.95;18.27;;;;;;;-143.21;67.83;71513.03;5046426;28;20209;-77
2023/08/22 06:03:43;;;;;;;25.10;18.27;;;;;;;-143.21;67.57;71501.13;5045496;28;20198;-78
2023/08/22 06:06:10;;;;;;;23.20;18.20;;;;;;;-143.21;67.27;71497.16;5042504;28;20236;-78
2023/08/22 06:08:38;;;;;;;22.58;17.40;;;;;;;-143.21;67.32;71489.22;5045746;28;20672;-79
2023/08/22 06:11:05;;;;;;;24.55;17.13;;;;;;;-143.21;67.37;71487.25;5042898;28;20688;-78
2023/08/22 06:13:32;;;;;;;22.65;17.30;;;;;;;-143.21;67.15;71483.28;5045231;28;20203;-79
2023/08/22 06:15:59;;;;;;;30.35;18.00;;;;;;;-143.21;67.55;71479.31;5048565;28;20212;-78
2023/08/22 06:18:26;;;;;;;36.33;17.90;;;;;;;-143.21;66.70;71463.44;5031660;28;20234;-79
2023/08/22 06:20:58;;;;;;;26.63;16.73;;;;;;;-143.21;66.11;71447.59;5019686;28;20202;-79
2023/08/22 06:23:25;;;;;;;26.70;17.67;;;;;;;-143.21;66.14;71437.69;5023093;28;20752;-79
2023/08/22 06:25:54;;;;;;;33.78;18.45;;;;;;;-143.21;65.60;71439.66;5025676;28;20233;-78
2023/08/22 06:28:20;;;;;;;26.30;18.00;;;;;;;-143.21;65.48;71437.69;5018777;28;20286;-78
2023/08/22 06:30:47;;;;;;;29.50;19.38;;;;;;;-143.21;65.35;71441.63;5021154;28;20693;-78
2023/08/22 06:33:16;;;;;;;23.67;16.77;;;;;;;-143.21;65.89;71441.63;5025164;28;20221;-83
2023/08/22 06:35:46;;;;;;;20.38;16.27;;;;;;;-143.21;66.17;71441.63;5027635;28;20572;-81
2023/08/22 06:38:13;;;;;;;22.45;15.15;;;;;;;-143.21;65.55;71413.88;5023206;28;20210;-80
2023/08/22 06:40:40;;;;;;;29.20;16.25;;;;;;;-143.21;65.15;71382.16;5029061;28;20282;-81
2023/08/22 06:43:08;;;;;;;17.58;14.23;;;;;;;-143.21;63.96;71368.28;5021144;28;20198;-81
2023/08/22 06:45:35;;;;;;;14.75;8.98;;;;;;;-143.21;60.69;71362.34;5022506;28;20709;-80
2023/08/22 06:48:02;;;;;;;18.15;9.80;;;;;;;-143.21;60.99;71350.44;5025183;28;20198;-81
2023/08/22 06:50:29;;;;;;;12.93;9.43;;;;;;;-143.21;61.36;71332.59;5020792;28;20674;-81
2023/08/22 06:52:56;;;;;;;14.32;10.50;;;;;;;-143.21;60.29;71322.69;5022980;28;20204;-82
2023/08/22 06:55:23;;;;;;;15.15;11.57;;;;;;;-143.21;60.82;71310.78;5020921;28;20203;-82
2023/08/22 06:57:49;;;;;;;23.35;14.13;;;;;;;-143.21;61.81;71296.91;5024598;28;20199;-82
2023/08/22 07:00:19;;;;;;;19.33;12.95;;;;;;;-143.21;60.55;71292.94;5027293;28;20221;-82
2023/08/22 07:02:47;;;;;;;21.02;13.93;;;;;;;-143.21;61.62;71283.03;5024357;28;20198;-81
2023/08/22 07:05:16;;;;;;;23.45;14.80;;;;;;;-143.21;61.15;71277.09;5028909;28;20226;-82
2023/08/22 07:07:43;;;;;;;17.60;13.35;;;;;;;-143.21;60.79;71255.28;5027410;28;20211;-82
2023/08/22 07:10:11;;;;;;;21.27;13.77;;;;;;;-143.21;60.18;71237.44;5025707;28;20206;-82
2023/08/22 07:12:38;;;;;;;17.65;13.82;;;;;;;-143.21;59.50;71213.66;5026044;28;20749;-81
2023/08/22 07:15:06;;;;;;;20.42;13.93;;;;;;;-143.21;59.32;71189.84;5011708;28;20299;-81
2023/08/22 07:17:35;;;;;;;19.30;14.00;;;;;;;-143.21;58.50;71172.00;5025660;28;20226;-82
2023/08/22 07:20:01;;;;;;;18.10;13.15;;;;;;;-143.21;58.11;71148.22;5037574;28;20199;-81
2023/08/22 07:22:28;;;;;;;17.25;13.25;;;;;;;-143.21;57.60;71134.34;5044865;28;20206;-85
2023/08/22 07:24:55;;;;;;;19.90;13.88;;;;;;;-143.21;57.63;71138.31;5046815;28;20308;-81
2023/08/22 07:27:22;;;;;;;17.60;13.48;;;;;;;-143.21;57.58;71142.28;5048152;28;20202;-80
2023/08/22 07:29:49;;;;;;;17.90;13.75;;;;;;;-143.21;57.43;71132.38;5051374;28;20194;-82
2023/08/22 07:32:18;;;;;;;23.42;12.88;;;;;;;-143.21;56.85;71124.44;5053856;28;20201;-80
2023/08/22 07:34:47;;;;;;;20.50;13.60;;;;;;;-143.21;56.49;71100.66;5071845;28;20941;-80
2023/08/22 07:37:14;;;;;;;15.45;12.35;;;;;;;-143.21;55.82;71100.66;5053592;28;20202;-79
2023/08/22 07:39:41;;;;;;;20.92;14.15;;;;;;;-143.21;56.49;71084.78;5050993;28;20202;-80
2023/08/22 07:42:08;;;;;;;19.35;13.85;;;;;;;-143.21;56.20;71074.88;5065541;28;20276;-80
2023/08/22 07:44:35;;;;;;;18.70;12.43;;;;;;;-143.21;55.55;71070.91;5032548;28;20751;-80
2023/08/22 07:47:02;;;;;;;18.58;13.38;;;;;;;-143.21;54.88;71061.00;5051304;28;20209;-80
2023/08/22 07:49:29;;;;;;;17.90;13.18;;;;;;;-143.21;55.19;71053.06;5032636;28;20808;-80
2023/08/22 07:51:58;;;;;;;18.20;13.02;;;;;;;-143.21;54.65;71041.16;5060411;28;20197;-80
2023/08/22 07:54:25;;;;;;;18.92;13.73;;;;;;;-143.21;54.69;71031.25;5032759;28;20229;-82
2023/08/22 07:56:51;;;;;;;18.02;12.88;;;;;;;-143.21;54.04;71019.38;5048949;28;20205;-83
2023/08/22 07:59:18;;;;;;;14.43;11.90;;;;;;;-143.21;53.70;70995.56;5075717;28;20679;-83
2023/08/22 08:01:45;;;;;;;17.10;12.38;;;;;;;-143.21;53.22;70997.56;5066451;28;20217;-82
2023/08/22 08:04:12;;;;;;;16.15;12.40;;;;;;;-143.21;52.87;70999.53;5054991;28;20213;-84
2023/08/22 08:06:39;;;;;;;19.17;12.18;;;;;;;-143.21;52.64;71003.50;5059771;28;20225;-83
2023/08/22 08:09:07;;;;;;;17.00;11.43;;;;;;;-143.21;53.25;70987.66;5053421;28;20198;-83
2023/08/22 08:11:34;;;;;;;15.75;12.07;;;;;;;-143.21;52.90;70973.78;5066620;28;20248;-83
2023/08/22 08:14:01;;;;;;;17.20;12.48;;;;;;;-143.21;52.44;70957.91;5055953;28;20225;-83
2023/08/22 08:16:28;;;;;;;16.83;12.07;;;;;;;-143.21;51.91;70948.00;5055162;28;20676;-82
2023/08/22 08:18:55;;;;;;;15.38;11.52;;;;;;;-143.21;51.26;70940.06;5074850;28;20229;-82
2023/08/22 08:21:22;;;;;;;18.38;11.85;;;;;;;-143.21;50.66;70930.16;5073142;28;20201;-83
2023/08/22 08:23:48;;;;;;;14.20;11.00;;;;;;;-143.21;49.98;70928.19;5072792;28;20615;-82
2023/08/22 08:26:17;;;;;;;12.60;10.73;;;;;;;-143.21;50.25;70912.31;5053091;28;20244;-81
2023/08/22 08:28:44;;;;;;;17.35;12.23;;;;;;;-143.21;49.22;70904.38;5052072;28;20216;-80
2023/08/22 08:31:11;;;;;;;15.05;11.35;;;;;;;-143.21;49.66;70896.47;5060200;28;20300;-82
2023/08/22 08:33:38;;;;;;;13.82;11.15;;;;;;;-143.21;48.64;70880.59;5070587;28;20262;-82
2023/08/22 08:36:05;;;;;;;17.45;11.38;;;;;;;-143.21;48.45;70872.66;5072668;28;20220;-82
2023/08/22 08:38:32;;;;;;;14.88;11.23;;;;;;;-143.21;47.95;70850.88;5072818;28;20193;-83
2023/08/22 08:41:03;;;;;;;14.88;11.25;;;;;;;-143.21;47.99;70858.78;5070664;28;20194;-80
2023/08/22 08:43:33;;;;;;;18.48;10.73;;;;;;;-143.21;48.05;70852.84;5072119;28;20209;-80
2023/08/22 08:46:02;;;;;;;16.17;11.38;;;;;;;-143.21;48.19;70852.84;5066880;28;20275;-80
2023/08/22 08:48:30;;;;;;;12.38;10.70;;;;;;;-143.21;47.83;70848.88;5059628;28;20202;-80
2023/08/22 08:51:19;;;;;;;15.25;11.00;;;;;;;-143.21;47.16;70827.06;5050434;28;20600;-80
2023/08/22 08:53:56;;;;;;;14.60;10.02;;;;;;;-143.21;46.06;70807.25;5050948;28;20194;-81
2023/08/22 08:56:23;;;;;;;14.63;9.77;;;;;;;-143.21;45.72;70793.38;5051962;28;20202;-80
2023/08/22 08:58:52;;;;;;;12.85;9.85;;;;;;;-143.21;45.59;70783.47;5038937;28;20709;-81
2023/08/22 09:01:19;;;;;;;21.65;11.10;;;;;;;-143.21;45.21;70767.63;5036969;28;20194;-81
2023/08/22 09:03:49;;;;;;;18.20;11.05;;;;;;;-143.21;45.80;70731.94;5051065;28;20197;-80
2023/08/22 09:06:16;;;;;;;17.05;10.65;;;;;;;-143.21;44.45;70722.03;5054801;28;20214;-80
2023/08/22 09:09:03;;;;;;;20.98;13.00;;;;;;;-143.21;43.93;70704.19;5059684;28;20256;-79
2023/08/22 09:11:31;;;;;;;16.25;10.18;;;;;;;-143.21;43.57;70694.25;5053771;28;20198;-80
2023/08/22 09:13:59;;;;;;;15.35;9.13;;;;;;;-143.21;42.65;70672.47;5065042;28;20606;-80
2023/08/22 09:16:26;;;;;;;15.93;10.00;;;;;;;-143.21;41.30;70636.78;5071033;28;20668;-80
2023/08/22 09:18:58;;;;;;;17.25;8.73;;;;;;;-143.21;40.73;70618.94;5060057;28;20704;-79
2023/08/22 09:21:25;;;;;;;12.02;8.43;;;;;;;-143.21;40.92;70599.13;5070966;28;20205;-79
2023/08/22 09:24:06;;;;;;;13.90;9.05;;;;;;;-143.21;40.20;70555.50;5070052;28;20200;-80
2023/08/22 09:26:32;;;;;;;14.02;8.15;;;;;;;-143.21;39.81;70541.63;5070057;28;20209;-80
2023/08/22 09:29:06;;;;;;;12.05;8.30;;;;;;;-143.21;39.63;70525.78;5061545;28;20625;-80
2023/08/22 09:31:35;;;;;;;11.50;8.30;;;;;;;-143.21;39.01;70523.81;5052867;28;20237;-80
2023/08/22 09:34:09;;;;;;;13.10;7.72;;;;;;;-143.21;38.47;70543.63;5056350;28;20210;-79
2023/08/22 09:36:44;;;;;;;12.18;7.90;;;;;;;-143.21;38.29;70535.69;5053941;28;20197;-80
2023/08/22 09:39:13;;;;;;;13.10;8.05;;;;;;;-143.21;37.51;70519.84;5064135;28;20199;-80
2023/08/22 09:41:40;;;;;;;9.88;7.30;;;;;;;-143.21;37.96;70521.81;5070431;28;20193;-80
2023/08/22 09:44:12;;;;;;;15.57;7.15;;;;;;;-143.21;37.24;70503.97;5056972;28;20206;-79
2023/08/22 09:46:41;;;;;;;12.18;7.03;;;;;;;-143.21;36.04;70474.25;5052569;28;20666;-80
2023/08/22 09:49:14;;;;;;;10.18;6.70;;;;;;;-143.21;35.51;70456.41;5051525;28;20237;-80
2023/08/22 09:51:42;;;;;;;11.60;7.03;;;;;;;-143.21;36.10;70446.50;5051719;28;20194;-80
2023/08/22 09:54:10;;;;;;;13.15;7.22;;;;;;;-143.21;35.95;70414.78;5051598;28;20206;-80
2023/08/22 09:56:38;;;;;;;13.80;7.00;;;;;;;-143.21;35.44;70389.03;5051975;28;20201;-80
2023/08/22 09:59:05;;;;;;;10.15;7.25;;;;;;;-143.21;35.45;70367.22;5051505;28;20205;-80
2023/08/22 10:01:35;;;;;;;12.80;6.95;;;;;;;-143.21;35.10;70355.31;5055933;28;20212;-81
2023/08/22 10:04:04;;;;;;;12.32;7.38;;;;;;;-143.21;35.32;70313.72;5063448;28;20194;-80
2023/08/22 10:06:34;;;;;;;9.50;6.50;;;;;;;-143.21;33.91;70315.69;5053898;28;20257;-80
2023/08/22 10:09:07;;;;;;;9.98;7.68;;;;;;;-143.21;34.13;70319.66;5064546;28;20584;-80
2023/08/22 10:11:38;;;;;;;8.73;6.70;;;;;;;-143.21;33.78;70331.53;5071399;28;20201;-80
2023/08/22 10:14:05;;;;;;;10.70;6.88;;;;;;;-143.21;33.75;70297.84;5068365;28;20209;-81
2023/08/22 10:16:34;;;;;;;11.90;6.43;;;;;;;-143.21;33.83;70278.03;5070849;28;20208;-78
2023/08/22 10:19:02;;;;;;;17.30;7.10;;;;;;;-143.21;32.98;70258.22;5049282;28;20226;-79
2023/08/22 10:21:33;;;;;;;11.80;7.25;;;;;;;-143.21;33.69;70248.28;5031313;28;20229;-79
2023/08/22 10:24:00;;;;;;;13.43;6.90;;;;;;;-143.21;33.37;70238.38;5031615;28;20298;-80
2023/08/22 10:26:46;;;;;;;17.00;7.20;;;;;;;-143.21;32.75;70240.38;5031380;28;20597;-80
2023/08/22 10:29:13;;;;;;;8.15;7.13;;;;;;;-143.21;32.36;70222.53;5032233;28;20237;-80
2023/08/22 10:32:14;;;;;;;7.22;6.53;;;;;;;-143.21;32.72;70232.44;5041292;28;20225;-81
2023/08/22 10:35:06;;;;;;;11.90;7.18;;;;;;;-143.21;32.56;70291.91;5050691;28;20190;-81
2023/08/22 10:37:33;;;;;;;12.88;7.10;;;;;;;-143.21;32.92;70335.50;5050835;28;20204;-80
2023/08/22 10:40:04;;;;;;;12.63;7.35;;;;;;;-143.21;33.59;70402.91;5050998;28;20190;-81
2023/08/22 10:42:31;;;;;;;12.40;7.13;;;;;;;-143.21;33.61;70337.50;5063420;28;20279;-80
2023/08/22 10:44:59;;;;;;;13.18;7.15;;;;;;;-143.21;33.50;70325.59;5069930;28;20213;-81
2023/08/22 10:47:27;;;;;;;9.32;6.80;;;;;;;-143.21;33.05;70272.09;5065120;28;20218;-81
2023/08/22 10:49:56;;;;;;;10.65;6.45;;;;;;;-143.21;33.21;70236.41;5069606;28;20200;-80
2023/08/22 10:52:27;;;;;;;11.95;7.55;;;;;;;-143.21;32.85;70232.44;5071021;28;20216;-80
2023/08/22 10:54:59;;;;;;;11.52;7.18;;;;;;;-143.21;32.60;70254.25;5041841;28;20202;-80
2023/08/22 10:57:27;;;;;;;8.45;7.05;;;;;;;-143.21;33.47;70210.63;5034699;28;20191;-80
2023/08/22 11:00:11;;;;;;;13.10;7.32;;;;;;;-143.21;32.72;70169.03;5050904;28;20194;-81
2023/08/22 11:02:38;;;;;;;14.32;7.10;;;;;;;-143.21;32.28;70184.88;5069686;28;20209;-81
2023/08/22 11:05:09;;;;;;;10.93;6.97;;;;;;;-143.21;32.35;70196.78;5074923;28;20270;-81
2023/08/22 11:07:39;;;;;;;10.35;7.05;;;;;;;-143.21;32.52;70216.59;5074502;28;20205;-80
2023/08/22 11:10:08;;;;;;;7.88;6.88;;;;;;;-143.21;32.30;70200.72;5069271;28;20206;-81
2023/08/22 11:12:35;;;;;;;10.57;6.93;;;;;;;-143.21;31.99;70174.97;5059182;28;20665;-81
2023/08/22 11:15:01;;;;;;;9.25;6.88;;;;;;;-143.21;32.46;70149.19;5054806;28;20360;-81